createdAt,value
2022-11-23T00:00:38.015Z,99364.38
2022-11-23T00:03:05.563Z,99375.53
2022-11-23T00:05:34.260Z,99373.81
2022-11-23T00:08:01.395Z,99379.84
2022-11-23T00:10:28.419Z,99379.84
2022-11-23T00:12:55.395Z,99362.69
2022-11-23T00:15:22.427Z,99378.19
2022-11-23T00:17:49.693Z,99372.19
2022-11-23T00:20:17.031Z,99377.34
2022-11-23T00:22:44.075Z,99377.28
2022-11-23T00:25:11.184Z,99383.38
2022-11-23T00:27:38.282Z,99379.91
2022-11-23T00:30:06.060Z,99385.94
2022-11-23T00:32:33.138Z,99395.38
2022-11-23T00:35:00.254Z,99402.28
2022-11-23T00:37:27.816Z,99400.53
2022-11-23T00:39:54.864Z,99398.84
2022-11-23T00:42:21.859Z,99399.69
2022-11-23T00:44:48.908Z,99398.84
2022-11-23T00:47:15.904Z,99398.03
2022-11-23T00:49:42.943Z,99395.41
2022-11-23T00:52:10.034Z,99404.91
2022-11-23T00:54:37.128Z,99412.63
2022-11-23T00:57:04.534Z,99410.91
2022-11-23T00:59:31.855Z,99409.19
2022-11-23T01:01:59.183Z,99413.50
2022-11-23T01:04:27.277Z,99409.25
2022-11-23T01:06:57.451Z,99423.00
2022-11-23T01:09:26.653Z,99413.56
2022-11-23T01:11:54.697Z,99416.13
2022-11-23T01:14:22.649Z,99429.88
2022-11-23T01:16:49.731Z,99424.72
2022-11-23T01:19:19.868Z,99428.13
2022-11-23T01:21:47.219Z,99434.19
2022-11-23T01:24:17.864Z,99429.03
2022-11-23T01:26:45.325Z,99431.59
2022-11-23T01:29:12.787Z,99444.53
2022-11-23T01:31:46.164Z,99444.47
2022-11-23T01:34:14.762Z,99438.50
2022-11-23T01:36:42.726Z,99434.97
2022-11-23T01:39:10.911Z,99447.94
2022-11-23T01:41:41.507Z,99448.78
2022-11-23T01:44:32.115Z,99449.66
2022-11-23T01:47:01.829Z,99450.50
2022-11-23T01:49:35.584Z,99444.53
2022-11-23T01:52:11.948Z,99448.78
2022-11-23T01:54:45.536Z,99449.66
2022-11-23T01:57:19.842Z,99459.97
2022-11-23T01:59:47.844Z,99452.25
2022-11-23T02:02:15.936Z,99457.38
2022-11-23T02:04:46.251Z,99452.25
2022-11-23T02:07:14.800Z,99455.72
2022-11-23T02:09:42.633Z,99471.16
2022-11-23T02:12:13.367Z,99459.91
2022-11-23T02:14:42.381Z,99473.69
2022-11-23T02:17:09.648Z,99462.50
2022-11-23T02:19:48.534Z,99472.84
2022-11-23T02:22:26.735Z,99477.09
2022-11-23T02:24:55.161Z,99469.38
2022-11-23T02:27:23.517Z,99471.94
2022-11-23T02:29:52.394Z,99473.63
2022-11-23T02:32:23.570Z,99464.13
2022-11-23T02:34:50.779Z,99471.00
2022-11-23T02:37:18.706Z,99471.00
2022-11-23T02:39:51.073Z,99478.72
2022-11-23T02:42:18.612Z,99468.38
2022-11-23T02:45:08.576Z,99475.25
2022-11-23T02:47:35.610Z,99473.53
2022-11-23T02:50:02.979Z,99484.66
2022-11-23T02:52:30.006Z,99484.66
2022-11-23T02:54:57.491Z,99488.09
2022-11-23T02:57:24.935Z,99485.47
2022-11-23T02:59:51.978Z,99484.56
2022-11-23T03:02:19.046Z,99492.31
2022-11-23T03:04:46.206Z,99492.31
2022-11-23T03:07:13.286Z,99494.03
2022-11-23T03:09:40.336Z,99492.28
2022-11-23T03:12:07.410Z,99494.88
2022-11-23T03:14:34.562Z,99489.72
2022-11-23T03:17:01.685Z,99483.63
2022-11-23T03:19:28.974Z,99499.97
2022-11-23T03:21:56.250Z,99492.31
2022-11-23T03:24:23.573Z,99491.41
2022-11-23T03:26:50.717Z,99502.53
2022-11-23T03:29:17.789Z,99499.16
2022-11-23T03:31:44.821Z,99504.31
2022-11-23T03:34:12.046Z,99504.28
2022-11-23T03:36:39.040Z,99505.94
2022-11-23T03:39:06.042Z,99497.31
2022-11-23T03:41:33.129Z,99515.38
2022-11-23T03:44:00.154Z,99514.50
2022-11-23T03:46:27.656Z,99508.50
2022-11-23T03:48:54.717Z,99511.91
2022-11-23T03:51:22.012Z,99511.91
2022-11-23T03:53:49.328Z,99510.19
2022-11-23T03:56:16.327Z,99509.28
2022-11-23T03:58:43.359Z,99510.13
2022-11-23T04:01:10.484Z,99506.72
2022-11-23T04:03:37.644Z,99508.41
2022-11-23T04:06:04.747Z,99504.13
2022-11-23T04:08:31.797Z,99493.75
2022-11-23T04:10:59.676Z,99502.41
2022-11-23T04:13:27.297Z,99504.97
2022-11-23T04:15:54.852Z,99500.69
2022-11-23T04:18:21.939Z,99502.34
2022-11-23T04:20:49.043Z,99493.75
2022-11-23T04:23:16.072Z,99503.25
2022-11-23T04:25:43.209Z,99497.25
2022-11-23T04:28:10.203Z,99499.84
2022-11-23T04:30:37.240Z,99495.47
2022-11-23T04:33:04.307Z,99503.25
2022-11-23T04:35:31.468Z,99488.59
2022-11-23T04:37:58.470Z,99494.69
2022-11-23T04:40:26.004Z,99492.97
2022-11-23T04:42:53.848Z,99491.22
2022-11-23T04:45:22.666Z,99497.25
2022-11-23T04:47:49.902Z,99492.97
2022-11-23T04:50:17.201Z,99504.13
2022-11-23T04:52:44.288Z,99504.16
2022-11-23T04:55:11.451Z,99502.47
2022-11-23T04:57:38.444Z,99504.13
2022-11-23T05:00:05.994Z,99499.88
2022-11-23T05:02:33.130Z,99507.63
2022-11-23T05:05:00.171Z,99489.59
2022-11-23T05:07:27.218Z,99500.75
2022-11-23T05:09:54.356Z,99496.47
2022-11-23T05:12:21.352Z,99499.91
2022-11-23T05:14:48.340Z,99491.28
2022-11-23T05:17:15.375Z,99487.81
2022-11-23T05:19:42.390Z,99480.94
2022-11-23T05:22:09.431Z,99477.34
2022-11-23T05:24:36.577Z,99479.03
2022-11-23T05:27:03.664Z,99494.50
2022-11-23T05:29:31.013Z,99492.69
2022-11-23T05:31:58.267Z,99486.66
2022-11-23T05:34:25.307Z,99492.66
2022-11-23T05:36:52.312Z,99495.22
2022-11-23T05:39:19.403Z,99505.53
2022-11-23T05:41:46.417Z,99505.53
2022-11-23T05:44:13.404Z,99510.69
2022-11-23T05:46:40.392Z,99510.72
2022-11-23T05:49:07.429Z,99515.00
2022-11-23T05:51:34.513Z,99523.63
2022-11-23T05:54:02.208Z,99514.22
2022-11-23T05:56:29.256Z,99515.94
2022-11-23T05:58:56.648Z,99514.31
2022-11-23T06:01:24.211Z,99522.88
2022-11-23T06:03:51.541Z,99525.44
2022-11-23T06:06:18.718Z,99520.31
2022-11-23T06:08:49.115Z,99525.56
2022-11-23T06:11:17.063Z,99527.28
2022-11-23T06:13:47.486Z,99521.25
2022-11-23T06:16:14.529Z,99529.03
2022-11-23T06:18:41.609Z,99525.56
2022-11-23T06:21:08.575Z,99518.75
2022-11-23T06:23:35.578Z,99520.47
2022-11-23T06:26:02.824Z,99517.00
2022-11-23T06:28:29.950Z,99521.31
2022-11-23T06:31:02.272Z,99522.22
2022-11-23T06:33:29.345Z,99521.31
2022-11-23T06:35:58.995Z,99524.78
2022-11-23T06:38:26.386Z,99529.09
2022-11-23T06:40:53.805Z,99523.88
2022-11-23T06:43:20.855Z,99524.78
2022-11-23T06:45:47.937Z,99527.34
2022-11-23T06:48:14.942Z,99534.19
2022-11-23T06:50:42.052Z,99528.13
2022-11-23T06:53:12.373Z,99532.44
2022-11-23T06:55:39.792Z,99528.97
2022-11-23T06:58:07.574Z,99524.66
2022-11-23T07:00:34.878Z,99541.84
2022-11-23T07:03:01.937Z,99539.25
2022-11-23T07:05:29.153Z,99540.06
2022-11-23T07:07:56.940Z,99540.03
2022-11-23T07:10:25.679Z,99543.44
2022-11-23T07:12:52.866Z,99551.97
2022-11-23T07:15:19.982Z,99552.78
2022-11-23T07:17:47.038Z,99559.56
2022-11-23T07:20:14.605Z,99553.56
2022-11-23T07:22:41.800Z,99560.44
2022-11-23T07:25:09.371Z,99569.00
2022-11-23T07:27:36.466Z,99568.94
2022-11-23T07:30:03.933Z,99570.59
2022-11-23T07:32:30.892Z,99561.91
2022-11-23T07:34:58.062Z,99570.47
2022-11-23T07:37:25.057Z,99579.88
2022-11-23T07:39:57.970Z,99591.81
2022-11-23T07:42:36.985Z,99586.63
2022-11-23T07:45:09.240Z,99591.78
2022-11-23T07:47:36.300Z,99584.00
2022-11-23T07:50:07.225Z,99591.81
2022-11-23T07:52:36.551Z,99591.84
2022-11-23T07:55:05.189Z,99600.44
2022-11-23T07:57:32.181Z,99597.88
2022-11-23T07:59:59.290Z,99606.50
2022-11-23T08:02:26.428Z,99609.13
2022-11-23T08:04:55.479Z,99604.84
2022-11-23T08:07:24.196Z,99616.09
2022-11-23T08:09:51.442Z,99613.53
2022-11-23T08:12:18.518Z,99617.00
2022-11-23T08:14:45.515Z,99612.72
2022-11-23T08:17:12.555Z,99617.91
2022-11-23T08:19:39.596Z,99605.00
2022-11-23T08:22:06.609Z,99621.47
2022-11-23T08:24:34.042Z,99618.03
2022-11-23T08:27:01.583Z,99621.53
2022-11-23T08:29:30.028Z,99612.88
2022-11-23T08:31:57.402Z,99614.72
2022-11-23T08:34:24.713Z,99623.34
2022-11-23T08:36:51.858Z,99614.81
2022-11-23T08:39:19.403Z,99614.81
2022-11-23T08:41:46.452Z,99607.94
2022-11-23T08:44:13.600Z,99626.97
2022-11-23T08:46:40.741Z,99621.00
2022-11-23T08:49:07.893Z,99617.59
2022-11-23T08:51:34.928Z,99619.31
2022-11-23T08:54:01.964Z,99622.78
2022-11-23T08:56:29.094Z,99602.03
2022-11-23T08:58:56.147Z,99614.19
2022-11-23T09:01:23.455Z,99626.28
2022-11-23T09:03:50.810Z,99621.13
2022-11-23T09:06:17.829Z,99620.25
2022-11-23T09:08:44.979Z,99616.81
2022-11-23T09:11:14.078Z,99622.09
2022-11-23T09:13:41.289Z,99610.06
2022-11-23T09:16:08.875Z,99610.06
2022-11-23T09:18:36.672Z,99606.72
2022-11-23T09:21:09.157Z,99607.56
2022-11-23T09:23:36.621Z,99609.28
2022-11-23T09:26:05.183Z,99610.13
2022-11-23T09:28:33.150Z,99614.50
2022-11-23T09:31:06.593Z,99604.22
2022-11-23T09:33:33.665Z,99608.53
2022-11-23T09:36:03.715Z,99601.63
2022-11-23T09:38:54.972Z,99601.66
2022-11-23T09:41:42.355Z,99605.03
2022-11-23T09:44:33.977Z,99601.56
2022-11-23T09:47:39.544Z,99602.41
2022-11-23T09:50:06.657Z,99597.31
2022-11-23T09:52:36.069Z,99597.38
2022-11-23T09:55:21.828Z,99584.56
2022-11-23T09:57:51.075Z,99580.31
2022-11-23T10:00:18.242Z,99581.19
2022-11-23T10:02:45.382Z,99575.16
2022-11-23T10:05:22.876Z,99578.69
2022-11-23T10:07:59.123Z,99570.97
2022-11-23T10:10:41.414Z,99567.59
2022-11-23T10:13:30.194Z,99560.72
2022-11-23T10:16:22.537Z,99548.72
2022-11-23T10:19:25.410Z,99547.88
2022-11-23T10:22:19.677Z,99549.63
2022-11-23T10:24:50.934Z,99541.88
2022-11-23T10:27:24.278Z,99541.03
2022-11-23T10:29:54.567Z,99549.63
2022-11-23T10:32:37.548Z,99540.16
2022-11-23T10:35:29.489Z,99539.41
2022-11-23T10:38:18.769Z,99541.13
2022-11-23T10:40:58.750Z,99543.72
2022-11-23T10:43:32.249Z,99542.03
2022-11-23T10:46:28.087Z,99545.50
2022-11-23T10:48:55.927Z,99548.94
2022-11-23T10:51:29.125Z,99542.97
2022-11-23T10:54:04.950Z,99545.56
2022-11-23T10:56:34.519Z,99532.66
2022-11-23T10:59:01.802Z,99535.28
2022-11-23T11:01:30.284Z,99545.59
2022-11-23T11:04:06.549Z,99549.06
2022-11-23T11:06:36.064Z,99530.13
2022-11-23T11:09:10.799Z,99519.78
2022-11-23T11:11:46.553Z,99528.44
2022-11-23T11:14:19.814Z,99540.47
2022-11-23T11:16:51.542Z,99539.59
2022-11-23T11:19:28.945Z,99535.31
2022-11-23T11:21:57.969Z,99540.44
2022-11-23T11:24:39.148Z,99539.63
2022-11-23T11:27:32.832Z,99537.94
2022-11-23T11:30:07.339Z,99541.41
2022-11-23T11:33:14.526Z,99537.97
2022-11-23T11:35:46.948Z,99538.81
2022-11-23T11:38:25.108Z,99528.50
2022-11-23T11:40:53.031Z,99538.84
2022-11-23T11:43:40.572Z,99534.47
2022-11-23T11:46:31.829Z,99532.78
2022-11-23T11:49:15.534Z,99528.50
2022-11-23T11:51:47.965Z,99507.81
2022-11-23T11:54:37.074Z,99520.78
2022-11-23T11:57:15.965Z,99507.91
2022-11-23T11:59:47.324Z,99496.75
2022-11-23T12:02:17.045Z,99500.22
2022-11-23T12:04:49.850Z,99502.84
2022-11-23T12:07:33.290Z,99494.25
2022-11-23T12:10:26.596Z,99496.84
2022-11-23T12:12:56.602Z,99489.13
2022-11-23T12:15:48.805Z,99479.69
2022-11-23T12:18:34.875Z,99493.41
2022-11-23T12:21:21.285Z,99466.75
2022-11-23T12:24:06.289Z,99477.22
2022-11-23T12:26:52.093Z,99467.81
2022-11-23T12:29:40.388Z,99466.97
2022-11-23T12:32:34.840Z,99468.69
2022-11-23T12:35:22.069Z,99468.66
2022-11-23T12:38:18.038Z,99469.53
2022-11-23T12:41:07.433Z,99449.81
2022-11-23T12:44:01.193Z,99460.16
2022-11-23T12:46:46.951Z,99449.84
2022-11-23T12:49:16.702Z,99452.44
2022-11-23T12:52:21.128Z,99463.63
2022-11-23T12:54:54.505Z,99455.09
2022-11-23T12:57:33.421Z,99455.91
2022-11-23T13:00:06.193Z,99453.34
2022-11-23T13:02:56.693Z,99445.63
2022-11-23T13:05:40.615Z,99449.06
2022-11-23T13:08:45.175Z,99443.88
2022-11-23T13:11:26.195Z,99448.19
2022-11-23T13:14:16.200Z,99448.19
2022-11-23T13:16:46.375Z,99440.44
2022-11-23T13:19:13.418Z,99443.88
2022-11-23T13:21:43.411Z,99440.44
2022-11-23T13:24:33.462Z,99430.97
2022-11-23T13:27:31.452Z,99440.44
2022-11-23T13:30:01.108Z,99430.09
2022-11-23T13:32:38.135Z,99431.81
2022-11-23T13:35:13.967Z,99437.00
2022-11-23T13:37:55.933Z,99438.72
2022-11-23T13:40:36.752Z,99451.63
2022-11-23T13:43:25.393Z,99453.31
2022-11-23T13:46:37.380Z,99461.91
2022-11-23T13:49:43.179Z,99470.50
2022-11-23T13:52:25.102Z,99473.09
2022-11-23T13:55:04.033Z,99478.22
2022-11-23T13:57:34.835Z,99490.25
2022-11-23T14:00:39.266Z,99492.81
2022-11-23T14:03:45.209Z,99495.41
2022-11-23T14:06:36.726Z,99497.97
2022-11-23T14:09:06.663Z,99494.47
2022-11-23T14:11:43.035Z,99482.34
2022-11-23T14:14:20.111Z,99483.09
2022-11-23T14:17:09.037Z,99491.59
2022-11-23T14:20:21.714Z,99492.44
2022-11-23T14:23:26.439Z,99490.66
2022-11-23T14:25:59.099Z,99500.91
2022-11-23T14:28:44.146Z,99498.31
2022-11-23T14:31:45.186Z,99495.66
2022-11-23T14:34:31.928Z,99501.66
2022-11-23T14:37:18.927Z,99510.22
2022-11-23T14:39:54.424Z,99507.63
2022-11-23T14:42:24.989Z,99511.00
2022-11-23T14:44:53.368Z,99516.09
2022-11-23T14:47:29.135Z,99524.63
2022-11-23T14:49:57.237Z,99528.84
2022-11-23T14:52:31.051Z,99536.53
2022-11-23T14:55:00.182Z,99537.44
2022-11-23T14:57:39.620Z,99530.50
2022-11-23T15:00:11.804Z,99535.66
2022-11-23T15:02:41.099Z,99535.59
2022-11-23T15:05:26.949Z,99535.66
2022-11-23T15:08:00.270Z,99534.69
2022-11-23T15:10:52.251Z,99533.88
2022-11-23T15:13:24.915Z,99535.56
2022-11-23T15:15:57.239Z,99537.22
2022-11-23T15:18:29.627Z,99539.78
2022-11-23T15:21:01.089Z,99545.84
2022-11-23T15:23:35.555Z,99546.66
2022-11-23T15:26:34.653Z,99540.63
2022-11-23T15:29:02.708Z,99554.34
2022-11-23T15:31:32.342Z,99544.94
2022-11-23T15:34:03.766Z,99562.06
2022-11-23T15:36:36.780Z,99561.13
2022-11-23T15:39:08.838Z,99553.38
2022-11-23T15:41:39.952Z,99544.81
2022-11-23T15:44:23.945Z,99538.78
2022-11-23T15:46:54.966Z,99557.69
2022-11-23T15:49:22.312Z,99550.81
2022-11-23T15:51:49.949Z,99548.19
2022-11-23T15:54:32.137Z,99561.13
2022-11-23T15:56:59.616Z,99571.41
2022-11-23T15:59:46.859Z,99568.78
2022-11-23T16:02:21.467Z,99567.09
2022-11-23T16:04:48.759Z,99573.16
2022-11-23T16:07:21.678Z,99564.63
2022-11-23T16:09:52.756Z,99568.94
2022-11-23T16:12:26.354Z,99572.28
2022-11-23T16:14:59.004Z,99560.16
2022-11-23T16:17:28.146Z,99580.84
2022-11-23T16:20:00.011Z,99578.28
2022-11-23T16:22:33.720Z,99586.84
2022-11-23T16:25:20.603Z,99592.03
2022-11-23T16:27:57.943Z,99600.59
2022-11-23T16:30:27.129Z,99605.75
2022-11-23T16:32:54.365Z,99603.97
2022-11-23T16:35:21.538Z,99603.09
2022-11-23T16:37:48.609Z,99606.56
2022-11-23T16:40:15.757Z,99608.25
2022-11-23T16:42:43.443Z,99610.00
2022-11-23T16:45:11.158Z,99616.09
2022-11-23T16:47:55.715Z,99624.66
2022-11-23T16:50:24.285Z,99618.63
2022-11-23T16:52:51.466Z,99623.00
2022-11-23T16:55:18.573Z,99635.84
2022-11-23T16:57:46.819Z,99632.44
2022-11-23T17:00:19.182Z,99623.81
2022-11-23T17:02:46.381Z,99640.94
2022-11-23T17:05:18.386Z,99634.19
2022-11-23T17:07:46.239Z,99640.13
2022-11-23T17:10:14.864Z,99633.22
2022-11-23T17:12:49.546Z,99634.97
2022-11-23T17:15:19.526Z,99634.13
2022-11-23T17:17:46.506Z,99643.50
2022-11-23T17:20:14.680Z,99633.16
2022-11-23T17:22:41.731Z,99640.94
2022-11-23T17:25:14.916Z,99649.56
2022-11-23T17:27:43.727Z,99658.19
2022-11-23T17:30:17.544Z,99659.94
2022-11-23T17:32:44.388Z,99667.66
2022-11-23T17:35:11.316Z,99666.75
2022-11-23T17:37:38.758Z,99667.56
2022-11-23T17:40:16.948Z,99669.25
2022-11-23T17:42:44.579Z,99678.72
2022-11-23T17:45:12.486Z,99681.31
2022-11-23T17:47:40.769Z,99688.09
2022-11-23T17:50:12.681Z,99695.00
2022-11-23T17:52:42.170Z,99706.13
2022-11-23T17:55:11.496Z,99692.44
2022-11-23T17:57:39.123Z,99690.69
2022-11-23T18:00:14.340Z,99689.88
2022-11-23T18:02:42.829Z,99698.53
2022-11-23T18:05:11.691Z,99691.56
2022-11-23T18:07:41.503Z,99709.59
2022-11-23T18:10:11.379Z,99706.19
2022-11-23T18:12:39.472Z,99710.50
2022-11-23T18:15:08.871Z,99723.31
2022-11-23T18:17:38.852Z,99725.84
2022-11-23T18:20:10.184Z,99731.00
2022-11-23T18:22:37.664Z,99725.88
2022-11-23T18:25:05.750Z,99739.63
2022-11-23T18:27:33.004Z,99730.09
2022-11-23T18:30:00.067Z,99723.16
2022-11-23T18:32:27.066Z,99742.13
2022-11-23T18:34:55.242Z,99746.38
2022-11-23T18:37:22.250Z,99743.75
2022-11-23T18:39:49.352Z,99743.81
2022-11-23T18:42:16.401Z,99743.81
2022-11-23T18:44:43.436Z,99757.56
2022-11-23T18:47:12.895Z,99754.03
2022-11-23T18:49:39.947Z,99753.06
2022-11-23T18:52:08.152Z,99763.47
2022-11-23T18:54:35.163Z,99765.13
2022-11-23T18:57:02.403Z,99765.06
2022-11-23T18:59:56.273Z,99768.50
2022-11-23T19:02:16.477Z,99776.13
2022-11-23T19:04:43.613Z,99771.69
2022-11-23T19:07:10.735Z,99782.75
2022-11-23T19:09:37.944Z,99781.81
2022-11-23T19:12:08.646Z,99776.59
2022-11-23T19:14:38.416Z,99779.97
2022-11-23T19:17:08.615Z,99793.59
2022-11-23T19:19:38.384Z,99791.03
2022-11-23T19:22:08.929Z,99794.41
2022-11-23T19:24:36.171Z,99795.13
2022-11-23T19:27:03.225Z,99819.13
2022-11-23T19:29:30.278Z,99815.63
2022-11-23T19:31:57.354Z,99826.72
2022-11-23T19:34:24.584Z,99827.59
2022-11-23T19:36:51.617Z,99823.38
2022-11-23T19:39:18.670Z,99837.84
2022-11-23T19:41:46.953Z,99841.25
2022-11-23T19:44:14.010Z,99843.78
2022-11-23T19:46:41.066Z,99840.31
2022-11-23T19:49:08.442Z,99838.50
2022-11-23T19:51:38.106Z,99846.19
2022-11-23T19:54:07.017Z,99856.44
2022-11-23T19:56:34.178Z,99843.53
2022-11-23T19:59:01.398Z,99854.69
2022-11-23T20:01:34.129Z,99844.34
2022-11-23T20:04:08.799Z,99852.03
2022-11-23T20:06:38.920Z,99862.22
2022-11-23T20:09:08.739Z,99857.91
2022-11-23T20:11:38.095Z,99866.44
2022-11-23T20:14:06.629Z,99859.56
2022-11-23T20:16:34.023Z,99872.41
2022-11-23T20:19:03.666Z,99870.69
2022-11-23T20:21:31.863Z,99872.38
2022-11-23T20:24:04.731Z,99868.00
2022-11-23T20:26:33.405Z,99870.56
2022-11-23T20:29:00.463Z,99875.66
2022-11-23T20:31:29.455Z,99878.13
2022-11-23T20:33:57.593Z,99875.56
2022-11-23T20:36:29.314Z,99867.66
2022-11-23T20:38:57.047Z,99875.31
2022-11-23T20:41:30.156Z,99876.97
2022-11-23T20:44:03.058Z,99877.75
2022-11-23T20:47:00.702Z,99883.72
2022-11-23T20:49:18.740Z,99885.28
2022-11-23T20:51:45.917Z,99888.72
2022-11-23T20:54:12.973Z,99901.63
2022-11-23T20:56:40.002Z,99899.84
2022-11-23T20:59:07.085Z,99909.31
2022-11-23T21:01:34.596Z,99904.16
2022-11-23T21:04:02.269Z,99902.41
2022-11-23T21:06:32.332Z,99911.88
2022-11-23T21:09:02.350Z,99913.47
2022-11-23T21:11:48.336Z,99917.81
2022-11-23T21:14:18.550Z,99919.53
2022-11-23T21:16:53.216Z,99920.31
2022-11-23T21:19:25.362Z,99928.06
2022-11-23T21:21:53.463Z,99930.66
2022-11-23T21:24:20.817Z,99931.50
2022-11-23T21:26:48.401Z,99938.41
2022-11-23T21:29:17.020Z,99936.59
2022-11-23T21:31:46.250Z,99933.25
2022-11-23T21:34:24.516Z,99947.88
2022-11-23T21:36:52.555Z,99940.13
2022-11-23T21:39:20.451Z,99955.53
2022-11-23T21:41:50.107Z,99947.72
2022-11-23T21:44:17.989Z,99952.88
2022-11-23T21:46:45.520Z,99951.19
2022-11-23T21:49:12.957Z,99953.75
2022-11-23T21:51:42.328Z,99955.28
2022-11-23T21:54:13.719Z,99966.50
2022-11-23T21:56:47.177Z,99975.13
2022-11-23T21:59:14.413Z,99969.22
2022-11-23T22:01:41.748Z,99966.59
2022-11-23T22:04:15.226Z,99976.03
2022-11-23T22:06:44.385Z,99970.81
2022-11-23T22:09:12.154Z,99985.53
2022-11-23T22:11:41.612Z,99993.34
2022-11-23T22:14:11.741Z,99997.66
2022-11-23T22:16:41.630Z,99997.69
2022-11-23T22:19:11.831Z,99992.56
2022-11-23T22:21:40.440Z,99998.66
2022-11-23T22:24:19.011Z,100001.31
2022-11-23T22:26:47.814Z,100015.13
2022-11-23T22:29:15.243Z,100004.94
2022-11-23T22:31:43.551Z,100005.88
2022-11-23T22:34:13.103Z,100010.19
2022-11-23T22:36:40.436Z,100014.56
2022-11-23T22:39:08.172Z,100018.06
2022-11-23T22:41:37.343Z,100019.81
2022-11-23T22:44:06.559Z,100018.91
2022-11-23T22:46:33.703Z,100029.25
2022-11-23T22:49:01.817Z,100030.09
2022-11-23T22:51:29.824Z,100027.56
2022-11-23T22:53:59.096Z,100035.22
2022-11-23T22:56:27.190Z,100038.63
2022-11-23T22:58:59.882Z,100044.59
2022-11-23T23:01:29.970Z,100042.94
2022-11-23T23:03:59.506Z,100049.84
2022-11-23T23:06:29.180Z,100053.41
2022-11-23T23:08:58.999Z,100060.31
2022-11-23T23:11:29.088Z,100060.38
2022-11-23T23:13:56.955Z,100069.81
2022-11-23T23:16:24.909Z,100065.69
2022-11-23T23:18:55.302Z,100063.16
2022-11-23T23:21:23.581Z,100063.22
2022-11-23T23:23:52.739Z,100071.00
2022-11-23T23:26:23.496Z,100074.50
2022-11-23T23:28:55.566Z,100081.38
2022-11-23T23:31:23.637Z,100086.53
2022-11-23T23:33:51.114Z,100079.63
2022-11-23T23:36:20.822Z,100069.22
2022-11-23T23:38:48.355Z,100089.09
2022-11-23T23:41:15.774Z,100085.59
2022-11-23T23:43:43.105Z,100086.25
2022-11-23T23:46:12.993Z,100092.44
2022-11-23T23:48:41.006Z,100079.56
2022-11-23T23:51:13.787Z,100087.22
2022-11-23T23:53:41.666Z,100093.25
2022-11-23T23:56:13.663Z,100091.56
2022-11-23T23:58:41.399Z,100086.44
